This is the latest recevied weather packets stored in our database for station/object KE9ADS. If no packets are shown the sender has not sent any weather packets the latest 10 day(s).
| Time | Temp. | Humidity | Pressure | Rain* | Wind** | Luminosity | Snow |
|---|---|---|---|---|---|---|---|
| 1777732866 | 13.33° C | 39% | 1023.4 hPa | 0 mm | - | 506 W/m² | - |
| 1777732261 | 11.67° C | 53% | 1023.5 hPa | 0 mm | - | 479 W/m² | - |
| 1777731660 | 11.67° C | 51% | 1023.6 hPa | 0 mm | - | 454 W/m² | - |
| 1777731055 | 12.22° C | 54% | 1023.5 hPa | 0 mm | - | 417 W/m² | - |
| 1777730454 | 11.11° C | 59% | 1023.5 hPa | 0 mm | - | 381 W/m² | - |
| 1777729853 | 10.56° C | 60% | 1023.6 hPa | 0 mm | - | 354 W/m² | - |
| 1777729252 | 9.44° C | 63% | 1023.5 hPa | 0 mm | - | 318 W/m² | - |
| 1777728652 | 8.89° C | 64% | 1023.4 hPa | 0 mm | - | 283 W/m² | - |
| 1777728052 | 8.89° C | 67% | 1023.4 hPa | 0 mm | - | 91 W/m² | - |
| 1777727451 | 8.33° C | 69% | 1023.3 hPa | 0 mm | - | 218 W/m² | - |
| 1777726847 | 7.78° C | 69% | 1023.4 hPa | 0 mm | - | 188 W/m² | - |
| 1777726246 | 7.78° C | 70% | 1023.3 hPa | 0 mm | - | 160 W/m² | - |
| 1777725645 | 6.67° C | 72% | 1023.4 hPa | 0 mm | - | 136 W/m² | - |
| 1777725046 | 5.56° C | 76% | 1023.3 hPa | 0 mm | - | 94 W/m² | - |
| 1777724446 | 3.89° C | 84% | 1023.3 hPa | 0 mm | - | 39 W/m² | - |
| 1777723840 | 2.78° C | 88% | 1023.2 hPa | 0 mm | - | 39 W/m² | - |
| 1777723239 | 2.22° C | 91% | 1023.1 hPa | 0 mm | - | 31 W/m² | - |
| 1777722639 | 1.67° C | 93% | 1023 hPa | 0 mm | - | 24 W/m² | - |
| 1777722038 | 1.67° C | 93% | 1022.9 hPa | 0 mm | - | 19 W/m² | - |
| 1777721435 | 1.67° C | 93% | 1022.8 hPa | 0 mm | - | 15 W/m² | - |
| 1777720829 | 1.67° C | 92% | 1022.8 hPa | 0 mm | - | 11 W/m² | - |
| 1777720230 | 1.67° C | 92% | 1022.6 hPa | 0 mm | - | 6 W/m² | - |
| 1777719625 | 1.67° C | 92% | 1022.8 hPa | 0 mm | - | 3 W/m² | - |
| 1777719025 | 1.67° C | 92% | 1022.7 hPa | 0 mm | - | 1 W/m² | - |
| 1777718420 | 1.67° C | 92% | 1022.6 hPa | 0 mm | - | 0 W/m² | - |
* Rain latest hour (hover to see other rain measurements)
** Current wind speed in m/s (hover to see current wind gust speed)